createdAt,value
2022-09-17T00:03:16.883Z,11.36
2022-09-17T00:06:56.349Z,11.35
2022-09-17T00:10:43.838Z,11.37
2022-09-17T00:14:10.244Z,11.29
2022-09-17T00:17:53.135Z,11.25
2022-09-17T00:21:47.391Z,11.24
2022-09-17T00:25:19.725Z,11.29
2022-09-17T00:28:53.384Z,11.29
2022-09-17T00:32:44.496Z,11.23
2022-09-17T00:36:09.637Z,11.16
2022-09-17T00:39:44.837Z,11.05
2022-09-17T00:43:27.106Z,11.01
2022-09-17T00:46:55.006Z,10.88
2022-09-17T00:50:35.681Z,10.79
2022-09-17T00:54:09.357Z,10.76
2022-09-17T00:57:43.330Z,10.75
2022-09-17T01:01:08.985Z,10.73
2022-09-17T01:04:59.463Z,10.71
2022-09-17T01:08:56.416Z,10.67
2022-09-17T01:13:18.758Z,10.59
2022-09-17T01:17:35.758Z,10.44
2022-09-17T01:21:16.721Z,10.42
2022-09-17T01:29:42.907Z,10.55
2022-09-17T01:33:51.881Z,10.55
2022-09-17T01:37:16.244Z,10.49
2022-09-17T01:41:24.304Z,10.48
2022-09-17T01:45:34.198Z,10.50
2022-09-17T01:49:15.155Z,10.53
2022-09-17T01:53:01.669Z,10.53
2022-09-17T01:56:30.768Z,10.52
2022-09-17T02:00:06.486Z,10.52
2022-09-17T02:03:56.838Z,10.51
2022-09-17T02:07:07.645Z,10.40
2022-09-17T02:11:00.603Z,10.35
2022-09-17T02:14:48.601Z,10.37
2022-09-17T02:18:28.518Z,10.38
2022-09-17T02:22:36.293Z,10.32
2022-09-17T02:25:54.995Z,10.25
2022-09-17T02:29:29.999Z,10.25
2022-09-17T02:32:43.203Z,10.26
2022-09-17T02:36:27.416Z,10.31
2022-09-17T02:40:23.148Z,10.40
2022-09-17T02:44:36.060Z,10.30
2022-09-17T02:48:26.825Z,10.24
2022-09-17T02:52:07.063Z,10.26
2022-09-17T02:56:26.158Z,10.24
2022-09-17T03:00:48.607Z,10.21
2022-09-17T03:04:31.120Z,10.18
2022-09-17T03:08:23.210Z,10.16
2022-09-17T03:12:12.431Z,10.09
2022-09-17T03:15:24.608Z,10.05
2022-09-17T03:18:40.579Z,10.14
2022-09-17T03:22:17.733Z,10.21
2022-09-17T03:26:08.805Z,10.22
2022-09-17T03:30:04.270Z,10.16
2022-09-17T03:33:59.020Z,10.19
2022-09-17T03:37:57.000Z,10.22
2022-09-17T03:41:20.178Z,10.15
2022-09-17T03:45:16.631Z,10.16
2022-09-17T03:48:40.529Z,10.17
2022-09-17T03:52:34.068Z,10.19
2022-09-17T04:00:27.751Z,10.28
2022-09-17T04:03:42.500Z,10.30
2022-09-17T04:07:37.657Z,10.36
2022-09-17T04:10:58.434Z,10.35
2022-09-17T04:14:04.379Z,10.38
2022-09-17T04:17:19.005Z,10.44
2022-09-17T04:21:15.813Z,10.50
2022-09-17T04:25:07.193Z,10.52
2022-09-17T04:28:59.792Z,10.51
2022-09-17T04:32:36.130Z,10.53
2022-09-17T04:35:55.265Z,10.60
2022-09-17T04:39:21.775Z,10.62
2022-09-17T04:43:04.766Z,10.61
2022-09-17T04:46:33.579Z,10.64
2022-09-17T04:50:08.944Z,10.64
2022-09-17T04:53:49.178Z,10.63
2022-09-17T05:02:27.628Z,10.64
2022-09-17T05:06:06.206Z,10.71
2022-09-17T05:09:54.716Z,10.72
2022-09-17T05:13:38.320Z,10.75
2022-09-17T05:16:54.698Z,10.77
2022-09-17T05:20:21.511Z,10.78
2022-09-17T05:23:57.024Z,10.81
2022-09-17T05:27:28.462Z,10.80
2022-09-17T05:30:47.694Z,10.83
2022-09-17T05:33:56.085Z,10.89
2022-09-17T05:37:35.698Z,10.92
2022-09-17T05:41:09.775Z,10.90
2022-09-17T05:44:50.205Z,10.87
2022-09-17T05:48:37.584Z,10.88
2022-09-17T05:52:10.951Z,10.94
2022-09-17T05:55:47.488Z,10.92
2022-09-17T05:59:21.682Z,10.92
2022-09-17T06:02:30.837Z,10.93
2022-09-17T06:06:01.386Z,10.96
2022-09-17T06:09:17.294Z,10.92
2022-09-17T06:13:00.656Z,10.93
2022-09-17T06:16:16.415Z,10.94
2022-09-17T06:20:01.952Z,10.90
2022-09-17T06:23:16.096Z,10.89
2022-09-17T06:26:47.421Z,10.93
2022-09-17T06:30:45.334Z,10.98
2022-09-17T06:34:49.088Z,10.98
2022-09-17T06:38:25.010Z,11.02
2022-09-17T06:41:42.406Z,11.07
2022-09-17T06:45:10.264Z,11.09
2022-09-17T06:48:19.870Z,11.13
2022-09-17T06:52:04.497Z,11.18
2022-09-17T06:55:29.567Z,11.26
2022-09-17T06:59:27.511Z,11.29
2022-09-17T07:03:18.064Z,11.27
2022-09-17T07:07:11.402Z,11.26
2022-09-17T07:10:50.873Z,11.31
2022-09-17T07:14:10.125Z,11.34
2022-09-17T07:17:34.907Z,11.27
2022-09-17T07:21:20.126Z,11.20
2022-09-17T07:24:50.322Z,11.21
2022-09-17T07:28:25.013Z,11.25
2022-09-17T07:32:15.882Z,11.28
2022-09-17T07:35:42.606Z,11.31
2022-09-17T07:39:18.413Z,11.34
2022-09-17T07:42:27.843Z,11.40
2022-09-17T07:45:46.363Z,11.40
2022-09-17T07:49:43.046Z,11.48
2022-09-17T07:53:17.559Z,11.50
2022-09-17T07:56:52.656Z,11.48
2022-09-17T08:00:33.611Z,11.52
2022-09-17T08:04:17.501Z,11.55
2022-09-17T08:08:02.727Z,11.59
2022-09-17T08:11:56.481Z,11.71
2022-09-17T08:15:23.792Z,11.70
2022-09-17T08:19:15.076Z,11.73
2022-09-17T08:23:08.181Z,11.75
2022-09-17T08:26:44.923Z,11.80
2022-09-17T08:30:10.724Z,11.79
2022-09-17T08:33:36.424Z,11.87
2022-09-17T08:37:09.986Z,11.87
2022-09-17T08:40:28.770Z,11.85
2022-09-17T08:44:44.747Z,11.84
2022-09-17T08:48:31.112Z,11.85
2022-09-17T08:52:53.288Z,11.98
2022-09-17T08:56:47.564Z,12.15
2022-09-17T09:00:44.326Z,12.27
2022-09-17T09:05:06.300Z,12.38
2022-09-17T09:09:15.485Z,12.43
2022-09-17T09:13:32.770Z,12.48
2022-09-17T09:17:23.409Z,12.50
2022-09-17T09:21:21.027Z,12.52
2022-09-17T09:25:33.707Z,12.57
2022-09-17T09:29:37.871Z,12.66
2022-09-17T09:33:27.700Z,12.74
2022-09-17T09:37:05.379Z,12.81
2022-09-17T09:40:58.171Z,12.84
2022-09-17T09:44:19.355Z,12.87
2022-09-17T09:48:31.114Z,12.95
2022-09-17T09:52:17.483Z,13.01
2022-09-17T09:56:18.666Z,13.19
2022-09-17T09:59:43.224Z,13.33
2022-09-17T10:03:27.334Z,13.12
2022-09-17T10:07:05.302Z,12.87
2022-09-17T10:10:33.451Z,12.79
2022-09-17T10:14:36.396Z,12.70
2022-09-17T10:18:39.024Z,12.58
2022-09-17T10:22:07.307Z,12.59
2022-09-17T10:26:08.167Z,12.62
2022-09-17T10:29:54.632Z,12.64
2022-09-17T10:33:40.579Z,12.80
2022-09-17T10:37:24.076Z,12.85
2022-09-17T10:41:17.667Z,12.83
2022-09-17T10:44:48.203Z,12.80
2022-09-17T10:47:52.200Z,12.86
2022-09-17T10:51:46.746Z,12.99
2022-09-17T10:55:21.253Z,13.14
2022-09-17T10:59:18.776Z,13.09
2022-09-17T11:03:41.462Z,13.08
2022-09-17T11:07:30.268Z,13.19
2022-09-17T11:11:29.113Z,13.24
2022-09-17T11:15:47.586Z,13.19
2022-09-17T11:19:11.759Z,13.07
2022-09-17T11:22:58.323Z,13.07
2022-09-17T11:26:32.612Z,12.97
2022-09-17T11:30:29.305Z,13.02
2022-09-17T11:34:10.552Z,13.08
2022-09-17T11:38:00.085Z,13.17
2022-09-17T11:41:28.437Z,13.42
2022-09-17T11:45:07.535Z,13.56
2022-09-17T11:48:46.657Z,13.52
2022-09-17T11:52:16.513Z,13.45
2022-09-17T11:56:04.630Z,13.48
2022-09-17T11:59:14.044Z,13.46
2022-09-17T12:02:59.034Z,13.35
2022-09-17T12:06:23.733Z,13.28
2022-09-17T12:09:49.464Z,13.28
2022-09-17T12:13:07.746Z,13.22
2022-09-17T12:16:22.352Z,13.20
2022-09-17T12:20:18.181Z,13.21
2022-09-17T12:24:06.509Z,13.26
2022-09-17T12:28:19.313Z,13.24
2022-09-17T12:32:23.058Z,13.30
2022-09-17T12:36:21.709Z,13.41
2022-09-17T12:40:30.757Z,13.41
2022-09-17T12:44:44.063Z,13.41
2022-09-17T12:49:03.062Z,13.53
2022-09-17T12:53:13.268Z,13.72
2022-09-17T12:57:14.490Z,13.84
2022-09-17T13:01:12.637Z,13.89
2022-09-17T13:05:36.078Z,13.99
2022-09-17T13:09:41.917Z,14.09
2022-09-17T13:14:00.887Z,14.21
2022-09-17T13:22:28.083Z,14.43
2022-09-17T13:26:21.714Z,14.30
2022-09-17T13:30:45.939Z,14.12
2022-09-17T13:34:58.750Z,13.78
2022-09-17T13:38:53.755Z,13.30
2022-09-17T13:42:26.015Z,12.99
2022-09-17T13:46:37.669Z,12.90
2022-09-17T13:50:13.660Z,12.81
2022-09-17T13:53:58.299Z,12.74
2022-09-17T13:57:37.147Z,12.85
2022-09-17T14:01:32.031Z,13.06
2022-09-17T14:06:06.900Z,13.24
2022-09-17T14:10:36.748Z,13.49
2022-09-17T14:14:47.312Z,13.56
2022-09-17T14:18:34.850Z,13.47
2022-09-17T14:22:47.012Z,13.49
2022-09-17T14:26:43.602Z,13.56
2022-09-17T14:31:03.177Z,13.70
2022-09-17T14:35:06.859Z,13.78
2022-09-17T14:39:19.648Z,13.85
2022-09-17T14:43:14.799Z,13.76
2022-09-17T14:47:32.396Z,13.69
2022-09-17T14:50:58.674Z,13.69
2022-09-17T14:55:05.195Z,13.75
2022-09-17T14:58:58.215Z,13.77
2022-09-17T15:03:08.252Z,13.71
2022-09-17T15:06:41.475Z,13.63
2022-09-17T15:09:55.908Z,13.68
2022-09-17T15:14:02.636Z,13.70
2022-09-17T15:17:39.276Z,13.65
2022-09-17T15:21:36.788Z,13.57
2022-09-17T15:25:46.892Z,13.51
2022-09-17T15:29:57.889Z,13.46
2022-09-17T15:34:03.490Z,13.49
2022-09-17T15:38:05.747Z,13.63
2022-09-17T15:41:50.054Z,13.82
2022-09-17T15:45:48.104Z,13.94
2022-09-17T15:49:34.303Z,13.86
2022-09-17T15:53:30.937Z,13.87
2022-09-17T15:57:28.975Z,13.81
2022-09-17T16:00:33.165Z,13.76
2022-09-17T16:04:03.496Z,13.75
2022-09-17T16:08:01.606Z,13.69
2022-09-17T16:11:55.627Z,13.63
2022-09-17T16:15:25.818Z,13.61
2022-09-17T16:18:58.445Z,13.61
2022-09-17T16:22:51.267Z,13.62
2022-09-17T16:26:28.939Z,13.63
2022-09-17T16:30:12.648Z,13.59
2022-09-17T16:34:06.985Z,13.55
2022-09-17T16:38:13.221Z,13.50
2022-09-17T16:41:29.573Z,13.47
2022-09-17T16:44:42.991Z,13.43
2022-09-17T16:48:39.493Z,13.40
2022-09-17T16:52:42.442Z,13.36
2022-09-17T16:56:26.427Z,13.32
2022-09-17T17:00:00.046Z,13.15
2022-09-17T17:03:59.330Z,12.97
2022-09-17T17:07:16.562Z,12.91
2022-09-17T17:11:21.841Z,12.93
2022-09-17T17:14:31.224Z,12.93
2022-09-17T17:18:28.786Z,12.96
2022-09-17T17:22:31.485Z,12.91
2022-09-17T17:26:35.393Z,12.89
2022-09-17T17:30:07.921Z,12.92
2022-09-17T17:34:12.659Z,12.92
2022-09-17T17:38:16.567Z,12.80
2022-09-17T17:42:01.393Z,12.69
2022-09-17T17:46:12.220Z,12.66
2022-09-17T17:50:16.202Z,12.54
2022-09-17T17:54:10.269Z,12.48
2022-09-17T17:57:34.301Z,12.50
2022-09-17T18:01:05.584Z,12.40
2022-09-17T18:05:03.978Z,12.31
2022-09-17T18:09:08.288Z,12.31
2022-09-17T18:12:51.910Z,12.31
2022-09-17T18:16:17.126Z,12.28
2022-09-17T18:20:21.066Z,12.25
2022-09-17T18:24:04.901Z,12.12
2022-09-17T18:28:08.693Z,12.04
2022-09-17T18:32:26.977Z,12.01
2022-09-17T18:36:13.661Z,12.03
2022-09-17T18:40:07.644Z,11.96
2022-09-17T18:44:11.964Z,11.87
2022-09-17T18:47:41.154Z,11.81
2022-09-17T18:51:31.278Z,11.76
2022-09-17T18:55:14.979Z,11.65
2022-09-17T18:59:19.039Z,11.61
2022-09-17T19:03:32.432Z,11.53
2022-09-17T19:07:04.966Z,11.51
2022-09-17T19:10:28.402Z,11.45
2022-09-17T19:14:15.067Z,11.39
2022-09-17T19:17:48.743Z,11.35
2022-09-17T19:21:47.140Z,11.43
2022-09-17T19:25:34.715Z,11.38
2022-09-17T19:29:02.096Z,11.35
2022-09-17T19:32:55.948Z,11.31
2022-09-17T19:36:59.903Z,11.21
2022-09-17T19:40:53.213Z,11.18
2022-09-17T19:44:24.121Z,11.10
2022-09-17T19:48:10.798Z,11.06
2022-09-17T19:51:36.584Z,11.02
2022-09-17T19:55:25.131Z,11.01
2022-09-17T19:59:02.350Z,10.96
2022-09-17T20:03:07.275Z,10.82
2022-09-17T20:07:13.764Z,10.80
2022-09-17T20:10:37.440Z,10.85
2022-09-17T20:13:46.306Z,10.83
2022-09-17T20:17:32.973Z,10.68
2022-09-17T20:21:08.901Z,10.60
2022-09-17T20:24:21.489Z,10.64
2022-09-17T20:27:47.178Z,10.66
2022-09-17T20:31:38.833Z,10.60
2022-09-17T20:35:15.091Z,10.50
2022-09-17T20:42:25.930Z,10.53
2022-09-17T20:46:29.323Z,10.42
2022-09-17T20:50:43.459Z,10.38
2022-09-17T20:54:25.396Z,10.39
2022-09-17T20:57:42.116Z,10.39
2022-09-17T21:00:48.454Z,10.38
2022-09-17T21:04:20.091Z,10.43
2022-09-17T21:07:59.179Z,10.39
2022-09-17T21:11:05.528Z,10.39
2022-09-17T21:14:27.536Z,10.34
2022-09-17T21:17:42.394Z,10.31
2022-09-17T21:20:45.385Z,10.32
2022-09-17T21:24:18.100Z,10.32
2022-09-17T21:27:34.885Z,10.44
2022-09-17T21:30:49.730Z,10.52
2022-09-17T21:34:23.408Z,10.57
2022-09-17T21:37:59.832Z,10.52
2022-09-17T21:41:49.474Z,10.43
2022-09-17T21:45:06.565Z,10.41
2022-09-17T21:48:10.663Z,10.40
2022-09-17T21:51:22.352Z,10.37
2022-09-17T21:54:55.700Z,10.35
2022-09-17T21:58:06.552Z,10.37
2022-09-17T22:01:58.966Z,10.41
2022-09-17T22:05:46.166Z,10.37
2022-09-17T22:08:53.253Z,10.30
2022-09-17T22:11:56.888Z,10.29
2022-09-17T22:15:04.566Z,10.25
2022-09-17T22:18:20.844Z,10.20
2022-09-17T22:21:31.489Z,10.22
2022-09-17T22:24:43.878Z,10.21
2022-09-17T22:28:21.345Z,10.22
2022-09-17T22:31:27.815Z,10.22
2022-09-17T22:34:38.225Z,10.15
2022-09-17T22:37:44.280Z,10.12
2022-09-17T22:40:58.803Z,9.99
2022-09-17T22:44:06.656Z,9.86
2022-09-17T22:47:10.179Z,9.84
2022-09-17T22:50:14.078Z,9.89
2022-09-17T22:53:52.699Z,9.89
2022-09-17T22:57:09.895Z,9.86
2022-09-17T23:00:28.347Z,9.84
2022-09-17T23:03:35.127Z,9.80
2022-09-17T23:06:46.093Z,9.72
2022-09-17T23:10:09.737Z,9.81
2022-09-17T23:13:20.478Z,9.79
2022-09-17T23:16:24.913Z,9.82
2022-09-17T23:19:57.395Z,9.89
2022-09-17T23:23:14.829Z,9.93
2022-09-17T23:26:39.599Z,10.03
2022-09-17T23:29:54.850Z,10.12
2022-09-17T23:33:05.391Z,10.15
2022-09-17T23:36:54.112Z,10.20
2022-09-17T23:40:37.953Z,10.21
2022-09-17T23:43:54.402Z,10.06
2022-09-17T23:47:18.959Z,10.03
2022-09-17T23:50:22.135Z,10.03
2022-09-17T23:53:25.622Z,10.02
2022-09-17T23:56:51.111Z,9.94
2022-09-17T23:59:54.289Z,9.89
